Time;durP1;ratioP1;P1;durP2;ratioP2;P2;SDS_P1;SDS_P2;PMS_P1;PMS_P2;Temp;Humidity;BMP_temperature;BMP_pressure;BME280_temperature;BME280_humidity;BME280_pressure;Samples;Min_cycle;Max_cycle;Signal;HPM_P1;HPM_P2
2023/10/22 00:00:20;;;;;;;0.30;0.20;;;19.90;99.90;;;;;;5078860;28;20554;-79
2023/10/22 00:02:46;;;;;;;0.30;0.20;;;19.90;99.90;;;;;;5078986;28;20217;-79
2023/10/22 00:05:12;;;;;;;1.13;1.13;;;19.90;99.90;;;;;;5046683;28;20217;-76
2023/10/22 00:07:37;;;;;;;0.30;0.20;;;19.90;99.90;;;;;;5046945;28;20737;-76
2023/10/22 00:10:03;;;;;;;0.30;0.20;;;19.90;99.90;;;;;;5046543;28;20236;-79
2023/10/22 00:12:29;;;;;;;0.30;0.20;;;19.90;99.90;;;;;;5078646;28;20234;-76
2023/10/22 00:14:55;;;;;;;0.30;0.20;;;19.90;99.90;;;;;;5046595;28;20532;-79
2023/10/22 00:17:21;;;;;;;0.30;0.20;;;19.90;99.90;;;;;;5046521;28;20970;-78
2023/10/22 00:19:47;;;;;;;2.13;2.03;;;19.90;99.90;;;;;;5046271;28;20647;-79
2023/10/22 00:22:14;;;;;;;0.30;0.20;;;19.90;99.90;;;;;;5046195;28;20213;-79
2023/10/22 00:24:40;;;;;;;0.30;0.20;;;19.90;99.90;;;;;;5077195;28;20792;-76
2023/10/22 00:27:07;;;;;;;0.30;0.20;;;19.90;99.90;;;;;;5078171;28;20425;-76
2023/10/22 00:29:32;;;;;;;0.30;0.20;;;19.80;99.90;;;;;;5046141;28;20431;-76
2023/10/22 00:31:58;;;;;;;0.30;0.20;;;19.80;99.90;;;;;;5078720;28;20419;-76
2023/10/22 00:34:24;;;;;;;0.30;0.20;;;19.80;99.90;;;;;;5046157;28;20209;-76
2023/10/22 00:36:49;;;;;;;0.30;0.20;;;19.80;99.90;;;;;;5046885;28;20216;-79
2023/10/22 00:39:15;;;;;;;0.30;0.20;;;19.70;99.90;;;;;;5078487;28;20177;-76
2023/10/22 00:41:41;;;;;;;0.30;0.20;;;19.70;99.90;;;;;;5045960;28;20292;-76
2023/10/22 00:44:07;;;;;;;0.30;0.20;;;19.70;99.90;;;;;;5078284;28;20184;-76
2023/10/22 00:46:33;;;;;;;0.30;0.20;;;19.70;99.90;;;;;;5046142;28;20243;-79
2023/10/22 00:48:59;;;;;;;0.30;0.20;;;19.60;99.90;;;;;;5045872;28;20209;-78
2023/10/22 00:51:25;;;;;;;0.30;0.20;;;19.60;99.90;;;;;;5046262;28;20465;-76
2023/10/22 00:53:52;;;;;;;0.30;0.20;;;19.60;99.90;;;;;;5077951;28;20181;-78
2023/10/22 00:56:20;;;;;;;1.60;1.50;;;19.60;99.90;;;;;;5045882;28;20474;-76
2023/10/22 00:58:46;;;;;;;0.30;0.20;;;19.60;99.90;;;;;;5078028;28;20920;-76
2023/10/22 01:01:12;;;;;;;0.30;0.20;;;19.60;99.90;;;;;;5078149;28;20473;-79
2023/10/22 01:03:39;;;;;;;0.30;0.20;;;19.60;99.90;;;;;;5077909;28;20238;-76
2023/10/22 01:06:06;;;;;;;2.20;2.00;;;19.70;99.90;;;;;;5046062;28;20445;-76
2023/10/22 01:08:33;;;;;;;0.30;0.20;;;19.60;99.90;;;;;;5046024;28;20405;-76
2023/10/22 01:11:09;;;;;;;0.30;0.20;;;19.60;99.90;;;;;;5045647;28;20808;-76
2023/10/22 01:13:39;;;;;;;0.30;0.20;;;19.60;99.90;;;;;;5045630;28;20764;-79
2023/10/22 01:16:07;;;;;;;0.30;0.20;;;19.60;99.90;;;;;;5078228;28;21094;-76
2023/10/22 01:18:32;;;;;;;0.30;0.20;;;19.60;99.90;;;;;;5045952;28;20914;-76
2023/10/22 01:20:58;;;;;;;0.40;0.40;;;19.60;99.90;;;;;;5077632;28;20466;-79
2023/10/22 01:23:24;;;;;;;0.40;0.40;;;19.60;99.90;;;;;;5078133;28;20416;-77
2023/10/22 01:25:51;;;;;;;6.73;4.23;;;19.50;99.90;;;;;;5044680;28;20218;-76
2023/10/22 01:28:17;;;;;;;0.30;0.20;;;19.50;99.90;;;;;;5045841;28;20176;-78
2023/10/22 01:30:42;;;;;;;0.30;0.20;;;19.50;99.90;;;;;;5045503;28;20430;-79
2023/10/22 01:33:08;;;;;;;0.30;0.20;;;19.50;99.90;;;;;;5077534;28;20546;-78
2023/10/22 01:35:34;;;;;;;0.30;0.20;;;19.50;99.90;;;;;;5079536;28;20445;-79
2023/10/22 01:37:59;;;;;;;0.30;0.30;;;19.50;99.90;;;;;;5049588;28;20267;-78
2023/10/22 01:40:25;;;;;;;0.30;0.20;;;19.60;99.90;;;;;;5049724;28;20205;-78
2023/10/22 01:42:51;;;;;;;0.30;0.20;;;19.60;99.90;;;;;;5081631;28;20268;-78
2023/10/22 01:45:17;;;;;;;0.30;0.20;;;19.60;99.90;;;;;;5049174;28;20198;-76
2023/10/22 01:47:43;;;;;;;0.30;0.20;;;19.60;99.90;;;;;;5049353;28;20463;-76
2023/10/22 01:50:09;;;;;;;0.30;0.20;;;19.50;99.90;;;;;;5049274;28;20946;-76
2023/10/22 01:52:35;;;;;;;0.30;0.20;;;19.50;99.90;;;;;;5049383;28;20220;-79
2023/10/22 01:55:01;;;;;;;1.37;1.27;;;19.50;99.90;;;;;;5049127;28;20437;-76
2023/10/22 01:57:26;;;;;;;0.30;0.20;;;19.50;99.90;;;;;;5049227;28;20192;-76
2023/10/22 01:59:52;;;;;;;0.30;0.20;;;19.40;99.90;;;;;;5080866;28;20671;-79
2023/10/22 02:02:18;;;;;;;0.77;0.77;;;19.40;99.90;;;;;;5081352;28;20220;-79
2023/10/22 02:04:44;;;;;;;0.30;0.20;;;19.40;99.90;;;;;;5081176;28;20608;-76
2023/10/22 02:07:10;;;;;;;0.30;0.20;;;19.30;99.90;;;;;;5049066;28;20174;-79
2023/10/22 02:09:36;;;;;;;0.30;0.20;;;19.30;99.90;;;;;;5048697;28;20433;-79
2023/10/22 02:12:01;;;;;;;0.30;0.20;;;19.20;99.90;;;;;;5048820;28;20486;-79
2023/10/22 02:14:27;;;;;;;0.30;0.20;;;19.20;99.90;;;;;;5048675;28;20670;-76
2023/10/22 02:16:52;;;;;;;0.30;0.20;;;19.20;99.90;;;;;;5081263;28;20221;-79
2023/10/22 02:19:18;;;;;;;0.30;0.20;;;19.10;99.90;;;;;;5080494;28;20699;-79
2023/10/22 02:21:45;;;;;;;0.30;0.20;;;19.10;99.90;;;;;;5049140;28;20588;-78
2023/10/22 02:24:11;;;;;;;0.50;0.50;;;19.00;99.90;;;;;;5080480;28;20200;-76
2023/10/22 02:26:36;;;;;;;0.30;0.20;;;19.00;99.90;;;;;;5048749;28;20422;-76
2023/10/22 02:29:03;;;;;;;0.30;0.20;;;18.90;99.90;;;;;;5047631;28;20778;-78
2023/10/22 02:31:28;;;;;;;0.30;0.20;;;18.80;99.90;;;;;;5048393;28;20180;-78
2023/10/22 02:34:20;;;;;;;0.30;0.20;;;18.80;99.90;;;;;;5080448;28;20429;-78
2023/10/22 02:36:46;;;;;;;0.40;0.40;;;18.70;99.90;;;;;;5047848;28;20192;-75
2023/10/22 02:39:12;;;;;;;0.30;0.20;;;18.60;99.90;;;;;;5080227;28;20432;-78
2023/10/22 02:41:38;;;;;;;0.30;0.20;;;18.50;99.90;;;;;;5048568;28;20237;-75
2023/10/22 02:44:04;;;;;;;0.30;0.20;;;18.40;99.90;;;;;;5047667;28;20256;-78
2023/10/22 02:46:30;;;;;;;0.30;0.20;;;18.40;99.90;;;;;;5048225;28;20622;-78
2023/10/22 02:48:55;;;;;;;4.20;1.43;;;18.30;99.90;;;;;;5048222;28;20433;-76
2023/10/22 02:51:22;;;;;;;0.33;0.27;;;18.30;99.90;;;;;;5048269;28;20994;-78
2023/10/22 02:53:48;;;;;;;17.00;4.33;;;18.20;99.90;;;;;;5048198;28;20664;-79
2023/10/22 02:56:13;;;;;;;0.30;0.20;;;18.20;99.90;;;;;;5048321;28;20677;-76
2023/10/22 02:58:40;;;;;;;0.40;0.20;;;18.20;99.90;;;;;;5047916;28;20417;-78
2023/10/22 03:01:08;;;;;;;0.30;0.20;;;18.30;99.90;;;;;;5080342;28;20712;-76
2023/10/22 03:03:41;;;;;;;0.30;0.20;;;18.20;99.90;;;;;;5080021;28;20667;-76
2023/10/22 03:06:11;;;;;;;0.30;0.20;;;18.20;99.90;;;;;;5048499;28;21006;-76
2023/10/22 03:08:38;;;;;;;0.30;0.20;;;18.20;99.90;;;;;;5047842;28;20693;-76
2023/10/22 03:11:04;;;;;;;0.30;0.20;;;18.20;99.90;;;;;;5079788;28;20535;-75
2023/10/22 03:13:31;;;;;;;0.40;0.40;;;18.20;99.90;;;;;;5048008;28;20414;-78
2023/10/22 03:15:58;;;;;;;0.73;0.50;;;18.20;99.90;;;;;;5047566;28;20719;-76
2023/10/22 03:18:24;;;;;;;0.30;0.20;;;18.10;99.90;;;;;;5047998;28;20453;-78
2023/10/22 03:20:50;;;;;;;0.30;0.20;;;18.10;99.90;;;;;;5047562;28;20525;-75
2023/10/22 03:23:16;;;;;;;0.30;0.20;;;18.10;99.90;;;;;;5047730;28;20505;-76
2023/10/22 03:25:43;;;;;;;0.30;0.20;;;18.10;99.90;;;;;;5047666;28;20456;-75
2023/10/22 03:28:10;;;;;;;0.30;0.30;;;18.00;99.90;;;;;;5046823;28;20413;-78
2023/10/22 03:30:38;;;;;;;0.30;0.20;;;18.00;99.90;;;;;;5046735;28;20444;-78
2023/10/22 03:33:04;;;;;;;0.30;0.20;;;18.00;99.90;;;;;;5047331;28;20797;-77
2023/10/22 03:35:31;;;;;;;0.50;0.47;;;18.00;99.90;;;;;;5047539;28;20459;-75
2023/10/22 03:37:58;;;;;;;0.30;0.20;;;18.00;99.90;;;;;;5047396;28;20485;-75
2023/10/22 03:40:24;;;;;;;0.30;0.20;;;18.00;99.90;;;;;;5047119;28;21068;-76
2023/10/22 03:42:49;;;;;;;0.90;0.90;;;17.90;99.90;;;;;;5079141;28;20700;-78
2023/10/22 03:45:15;;;;;;;0.30;0.20;;;17.90;99.90;;;;;;5046847;28;20474;-79
2023/10/22 03:47:41;;;;;;;0.30;0.20;;;18.00;99.90;;;;;;5047235;28;20209;-78
2023/10/22 03:50:07;;;;;;;0.30;0.20;;;18.00;99.90;;;;;;5047196;28;20443;-79
2023/10/22 03:52:33;;;;;;;0.30;0.20;;;18.00;99.90;;;;;;5047249;28;20725;-76
2023/10/22 03:54:59;;;;;;;0.30;0.20;;;18.00;99.90;;;;;;5046744;28;20577;-78
2023/10/22 03:57:25;;;;;;;0.60;0.60;;;17.90;99.90;;;;;;5046379;28;20461;-77
2023/10/22 03:59:51;;;;;;;0.30;0.30;;;18.00;99.90;;;;;;5046349;28;20197;-75
2023/10/22 04:02:16;;;;;;;0.30;0.20;;;17.90;99.90;;;;;;5046850;28;20544;-79
2023/10/22 04:04:42;;;;;;;0.30;0.20;;;17.90;99.90;;;;;;5047140;28;20196;-75
2023/10/22 04:07:08;;;;;;;0.40;0.30;;;17.90;99.90;;;;;;5047283;28;20337;-75
2023/10/22 04:09:33;;;;;;;0.30;0.20;;;17.90;99.90;;;;;;5046393;28;20250;-78
2023/10/22 04:11:59;;;;;;;0.77;0.77;;;17.90;99.90;;;;;;5047054;28;20236;-79
2023/10/22 04:14:24;;;;;;;0.33;0.33;;;17.90;99.90;;;;;;5046624;28;20313;-78
2023/10/22 04:16:51;;;;;;;0.30;0.20;;;17.90;99.90;;;;;;5046779;28;20516;-78
2023/10/22 04:19:16;;;;;;;0.70;0.70;;;17.90;99.90;;;;;;5078821;28;20214;-76
2023/10/22 04:21:42;;;;;;;0.30;0.30;;;17.80;99.90;;;;;;5046743;28;20473;-76
2023/10/22 04:24:08;;;;;;;0.30;0.20;;;17.80;99.90;;;;;;5046176;28;20273;-78
2023/10/22 04:26:34;;;;;;;0.30;0.20;;;17.80;99.90;;;;;;5078975;28;20655;-79
2023/10/22 04:29:00;;;;;;;0.30;0.20;;;17.80;99.90;;;;;;5046185;28;20904;-78
2023/10/22 04:31:26;;;;;;;0.30;0.20;;;17.80;99.90;;;;;;5077814;28;20465;-76
2023/10/22 04:33:53;;;;;;;0.30;0.20;;;17.80;99.90;;;;;;5077783;28;20428;-79
2023/10/22 04:36:21;;;;;;;0.30;0.20;;;17.70;99.90;;;;;;5046705;28;20648;-76
2023/10/22 04:38:50;;;;;;;0.30;0.20;;;17.70;99.90;;;;;;5046176;28;21019;-78
2023/10/22 04:41:16;;;;;;;0.30;0.30;;;17.70;99.90;;;;;;5045757;28;20477;-79
2023/10/22 04:43:42;;;;;;;0.30;0.20;;;17.60;99.90;;;;;;5077857;28;20836;-79
2023/10/22 04:46:08;;;;;;;5.60;5.20;;;17.60;99.90;;;;;;5078029;28;20455;-78
2023/10/22 04:48:34;;;;;;;1.07;1.07;;;17.60;99.90;;;;;;5045733;28;20505;-75
2023/10/22 04:51:05;;;;;;;0.30;0.20;;;17.60;99.90;;;;;;5045974;28;20692;-78
2023/10/22 04:53:32;;;;;;;0.53;0.53;;;17.60;99.90;;;;;;5078281;28;20938;-79
2023/10/22 04:55:59;;;;;;;0.30;0.20;;;17.60;99.90;;;;;;5045935;28;20432;-79
2023/10/22 04:58:27;;;;;;;0.30;0.20;;;17.60;99.90;;;;;;5045981;28;20624;-79
2023/10/22 05:00:54;;;;;;;0.30;0.20;;;17.50;99.90;;;;;;5077729;28;20458;-78
2023/10/22 05:03:20;;;;;;;0.30;0.20;;;17.50;99.90;;;;;;5045932;28;20482;-77
2023/10/22 05:05:46;;;;;;;0.30;0.20;;;17.50;99.90;;;;;;5045648;28;20439;-76
2023/10/22 05:08:11;;;;;;;0.30;0.20;;;17.50;99.90;;;;;;5045882;28;20631;-79
2023/10/22 05:10:38;;;;;;;0.30;0.20;;;17.50;99.90;;;;;;5045116;28;20518;-76
2023/10/22 05:13:04;;;;;;;0.30;0.20;;;17.50;99.90;;;;;;5045617;28;20173;-76
2023/10/22 05:15:30;;;;;;;0.30;0.20;;;17.40;99.90;;;;;;5045783;28;20446;-76
2023/10/22 05:17:57;;;;;;;0.30;0.20;;;17.40;99.90;;;;;;5078037;28;20762;-75
2023/10/22 05:20:27;;;;;;;0.30;0.20;;;17.40;99.90;;;;;;5077788;28;20436;-78
2023/10/22 05:22:53;;;;;;;0.30;0.20;;;17.30;99.90;;;;;;5045541;28;20463;-76
2023/10/22 05:25:22;;;;;;;0.30;0.20;;;17.30;99.90;;;;;;5077706;28;20458;-77
2023/10/22 05:27:47;;;;;;;0.30;0.20;;;17.30;99.90;;;;;;5078031;28;20584;-78
2023/10/22 05:30:14;;;;;;;0.37;0.30;;;17.30;99.90;;;;;;5045449;28;20445;-76
2023/10/22 05:32:39;;;;;;;0.30;0.20;;;17.30;99.90;;;;;;5039898;28;20195;-78
2023/10/22 05:35:06;;;;;;;0.40;0.30;;;17.30;99.90;;;;;;5044290;28;20458;-75
2023/10/22 05:37:32;;;;;;;0.30;0.20;;;17.30;99.90;;;;;;5045258;28;20374;-78
2023/10/22 05:39:58;;;;;;;0.30;0.20;;;17.30;99.90;;;;;;5043899;28;20457;-76
2023/10/22 05:42:24;;;;;;;2.53;2.33;;;17.40;99.90;;;;;;5045677;28;21077;-79
2023/10/22 05:44:50;;;;;;;2.23;1.40;;;17.30;99.90;;;;;;5043645;28;20705;-76
2023/10/22 05:47:16;;;;;;;0.30;0.20;;;17.30;99.90;;;;;;5045731;28;20627;-78
2023/10/22 05:49:41;;;;;;;0.30;0.20;;;17.30;99.90;;;;;;5045709;28;20424;-78
2023/10/22 05:52:07;;;;;;;0.30;0.20;;;17.30;99.90;;;;;;5045519;28;20554;-78
2023/10/22 05:54:33;;;;;;;0.30;0.20;;;17.30;99.90;;;;;;5043365;28;20250;-78
2023/10/22 05:56:58;;;;;;;0.30;0.20;;;17.30;99.90;;;;;;5042325;28;20199;-76
2023/10/22 05:59:24;;;;;;;0.30;0.20;;;17.30;99.90;;;;;;5043367;28;20186;-75
2023/10/22 06:01:50;;;;;;;1.33;1.33;;;17.40;99.90;;;;;;5044072;28;20308;-78
2023/10/22 06:04:16;;;;;;;0.30;0.20;;;17.40;99.90;;;;;;5043558;28;20510;-76
2023/10/22 06:06:42;;;;;;;0.30;0.20;;;17.40;99.90;;;;;;5043801;28;20256;-76
2023/10/22 06:09:07;;;;;;;0.30;0.20;;;17.50;99.90;;;;;;5043362;28;20636;-76
2023/10/22 06:11:33;;;;;;;0.30;0.20;;;17.50;99.90;;;;;;5045398;28;20234;-79
2023/10/22 06:13:59;;;;;;;1.23;1.03;;;17.60;99.90;;;;;;5045184;28;20202;-76
2023/10/22 06:16:25;;;;;;;0.30;0.20;;;17.60;99.90;;;;;;5045457;28;20978;-78
2023/10/22 06:18:51;;;;;;;0.30;0.20;;;17.60;99.90;;;;;;5045102;28;20184;-78
2023/10/22 06:21:17;;;;;;;0.30;0.20;;;17.60;99.90;;;;;;5044691;28;20479;-76
2023/10/22 06:23:43;;;;;;;0.30;0.20;;;17.70;99.90;;;;;;5048712;28;20178;-78
2023/10/22 06:26:10;;;;;;;0.30;0.20;;;17.70;99.90;;;;;;5048399;28;20245;-76
2023/10/22 06:28:36;;;;;;;0.30;0.20;;;17.70;99.90;;;;;;5048653;28;20409;-78
2023/10/22 06:31:07;;;;;;;0.30;0.20;;;17.70;99.90;;;;;;5048324;28;20462;-76
2023/10/22 06:33:34;;;;;;;0.30;0.20;;;17.70;99.90;;;;;;5047080;28;20426;-76
2023/10/22 06:36:10;;;;;;;0.30;0.20;;;17.80;99.90;;;;;;5048724;28;20598;-78
2023/10/22 06:38:36;;;;;;;0.30;0.20;;;17.80;99.90;;;;;;5048726;28;20919;-79
2023/10/22 06:41:02;;;;;;;0.30;0.20;;;17.80;99.90;;;;;;5048231;28;20427;-78
2023/10/22 06:43:27;;;;;;;0.30;0.20;;;17.90;99.90;;;;;;5048300;28;20180;-76
2023/10/22 06:45:59;;;;;;;0.30;0.20;;;17.90;99.90;;;;;;5048027;28;20207;-76
2023/10/22 06:48:24;;;;;;;0.30;0.20;;;17.80;99.90;;;;;;5048293;28;20182;-76
2023/10/22 06:50:50;;;;;;;0.30;0.20;;;17.80;99.90;;;;;;5048234;28;20903;-75
2023/10/22 06:53:15;;;;;;;0.30;0.20;;;17.90;99.90;;;;;;5048229;28;20649;-76
2023/10/22 06:55:42;;;;;;;0.30;0.20;;;18.00;99.90;;;;;;5047705;28;20574;-78
2023/10/22 06:58:08;;;;;;;0.30;0.20;;;18.00;99.90;;;;;;5046814;28;20731;-78
2023/10/22 07:00:33;;;;;;;0.30;0.20;;;18.10;99.90;;;;;;5048233;28;20534;-77
2023/10/22 07:02:59;;;;;;;0.47;0.47;;;18.20;99.90;;;;;;5046704;28;20219;-77
2023/10/22 07:05:25;;;;;;;0.30;0.30;;;18.30;99.90;;;;;;5046122;28;20736;-78
2023/10/22 07:07:50;;;;;;;0.30;0.20;;;18.30;99.90;;;;;;5046912;28;20191;-76
2023/10/22 07:10:16;;;;;;;0.33;0.30;;;18.40;99.90;;;;;;5046066;28;20205;-79
2023/10/22 07:12:43;;;;;;;0.30;0.20;;;18.50;99.90;;;;;;5048095;28;20196;-76
2023/10/22 07:15:11;;;;;;;0.30;0.20;;;18.60;99.90;;;;;;5047701;28;20436;-76
2023/10/22 07:17:40;;;;;;;1.27;1.27;;;18.70;99.90;;;;;;5046260;28;20187;-78
2023/10/22 07:20:06;;;;;;;0.30;0.20;;;18.80;99.90;;;;;;5046132;28;20859;-77
2023/10/22 07:22:33;;;;;;;0.30;0.30;;;18.90;99.90;;;;;;5047798;28;20514;-79
2023/10/22 07:24:58;;;;;;;0.30;0.20;;;18.90;99.90;;;;;;5045808;28;20443;-76
2023/10/22 07:27:24;;;;;;;0.30;0.20;;;19.00;99.90;;;;;;5047599;28;20766;-78
2023/10/22 07:29:50;;;;;;;0.30;0.20;;;19.00;99.90;;;;;;5047791;28;20245;-79
2023/10/22 07:32:15;;;;;;;0.30;0.30;;;19.10;99.90;;;;;;5045595;28;20191;-79
2023/10/22 07:34:41;;;;;;;0.30;0.20;;;19.40;99.90;;;;;;5047486;28;20189;-78
2023/10/22 07:37:07;;;;;;;0.30;0.20;;;19.70;99.90;;;;;;5046297;28;20234;-79
2023/10/22 07:39:32;;;;;;;0.30;0.20;;;20.10;99.90;;;;;;5045816;28;20212;-76
2023/10/22 07:41:59;;;;;;;0.30;0.20;;;20.50;99.90;;;;;;5047087;28;20305;-76
2023/10/22 07:44:25;;;;;;;0.40;0.20;;;20.90;99.90;;;;;;5047062;28;20234;-77
2023/10/22 07:46:51;;;;;;;0.40;0.20;;;21.30;99.90;;;;;;5045554;28;20978;-77
2023/10/22 07:49:16;;;;;;;2.67;1.90;;;21.70;99.90;;;;;;5046809;28;20213;-76
2023/10/22 07:51:42;;;;;;;0.30;0.20;;;22.10;99.90;;;;;;5047536;28;20250;-79
2023/10/22 07:54:08;;;;;;;0.40;0.30;;;22.60;99.90;;;;;;5046713;28;20186;-77
2023/10/22 07:56:34;;;;;;;0.77;0.77;;;22.80;99.90;;;;;;5046890;28;20543;-77
2023/10/22 07:59:00;;;;;;;0.30;0.20;;;23.00;99.90;;;;;;5046690;28;20189;-76
2023/10/22 08:01:26;;;;;;;0.40;0.20;;;23.30;99.90;;;;;;5047064;28;20226;-76
2023/10/22 08:03:51;;;;;;;0.30;0.20;;;23.80;99.90;;;;;;5045667;28;20197;-76
2023/10/22 08:06:17;;;;;;;0.30;0.20;;;24.30;99.90;;;;;;5047029;28;20430;-79
2023/10/22 08:08:43;;;;;;;0.40;0.40;;;24.80;99.90;;;;;;5046768;28;20185;-77
2023/10/22 08:11:08;;;;;;;2.80;2.10;;;25.00;99.90;;;;;;5046684;28;20293;-79
2023/10/22 08:13:34;;;;;;;0.30;0.20;;;24.80;99.90;;;;;;5045051;28;20186;-79
2023/10/22 08:16:06;;;;;;;0.30;0.20;;;24.50;99.90;;;;;;5046527;28;20693;-79
2023/10/22 08:18:35;;;;;;;0.30;0.20;;;23.90;99.90;;;;;;5046921;28;20184;-76
2023/10/22 08:21:02;;;;;;;0.30;0.20;;;23.40;99.90;;;;;;5046156;28;20447;-79
2023/10/22 08:23:29;;;;;;;0.30;0.20;;;23.00;99.90;;;;;;5078699;28;20515;-79
2023/10/22 08:25:55;;;;;;;0.30;0.20;;;22.60;99.90;;;;;;5046213;28;20445;-79
2023/10/22 08:28:20;;;;;;;0.30;0.20;;;22.40;99.90;;;;;;5045180;28;20419;-79
2023/10/22 08:30:47;;;;;;;7.83;7.33;;;22.40;99.90;;;;;;5045585;28;20488;-77
2023/10/22 08:33:13;;;;;;;3.13;2.33;;;22.50;99.90;;;;;;5046027;28;20174;-76
2023/10/22 08:35:39;;;;;;;0.30;0.20;;;22.50;99.90;;;;;;5045979;28;20443;-79
2023/10/22 08:38:06;;;;;;;0.40;0.40;;;22.30;99.90;;;;;;5046365;28;20420;-79
2023/10/22 08:40:36;;;;;;;0.30;0.20;;;22.20;99.90;;;;;;5046350;28;20430;-79
2023/10/22 08:43:06;;;;;;;0.30;0.20;;;22.10;99.90;;;;;;5044174;28;20482;-76
2023/10/22 08:45:32;;;;;;;0.30;0.20;;;21.90;99.90;;;;;;5044049;28;20715;-79
2023/10/22 08:48:01;;;;;;;0.30;0.20;;;21.90;99.90;;;;;;5045784;28;20415;-79
2023/10/22 08:50:28;;;;;;;0.30;0.20;;;22.00;99.90;;;;;;5044352;28;20450;-76
2023/10/22 08:52:54;;;;;;;0.30;0.20;;;22.00;99.90;;;;;;5046046;28;20812;-76
2023/10/22 08:55:21;;;;;;;0.30;0.20;;;22.10;99.90;;;;;;5045630;28;20436;-78
2023/10/22 08:57:46;;;;;;;0.40;0.30;;;22.20;99.90;;;;;;5046032;28;20647;-76
2023/10/22 09:00:14;;;;;;;0.30;0.20;;;22.20;99.90;;;;;;5044444;28;20440;-76
2023/10/22 09:02:43;;;;;;;1.73;1.63;;;22.20;99.90;;;;;;5045895;28;20766;-76
2023/10/22 09:05:08;;;;;;;0.30;0.20;;;22.20;99.90;;;;;;5045856;28;21023;-77
2023/10/22 09:07:50;;;;;;;0.30;0.20;;;22.20;99.90;;;;;;5044473;28;20519;-79
2023/10/22 09:10:26;;;;;;;0.30;0.20;;;22.10;99.90;;;;;;5045452;28;20233;-79
2023/10/22 09:12:53;;;;;;;0.30;0.20;;;22.00;99.90;;;;;;5045812;28;20442;-79
2023/10/22 09:15:18;;;;;;;0.30;0.20;;;22.00;99.90;;;;;;5045536;28;20446;-76
2023/10/22 09:17:45;;;;;;;0.30;0.20;;;22.00;99.90;;;;;;5045904;28;20758;-76
2023/10/22 09:20:21;;;;;;;0.30;0.20;;;22.00;99.90;;;;;;5045493;28;20608;-79
2023/10/22 09:22:47;;;;;;;0.30;0.20;;;22.00;99.90;;;;;;5044172;28;20532;-79
2023/10/22 09:25:14;;;;;;;50.00;2.20;;;22.00;99.90;;;;;;5045607;28;20445;-75
2023/10/22 09:27:40;;;;;;;0.30;0.20;;;22.00;99.90;;;;;;5042842;28;20473;-78
2023/10/22 09:30:06;;;;;;;0.30;0.20;;;22.10;99.90;;;;;;5044414;28;20471;-79
2023/10/22 09:32:32;;;;;;;0.30;0.20;;;22.10;99.90;;;;;;5045037;28;20178;-76
2023/10/22 09:35:14;;;;;;;1.70;1.70;;;22.20;99.90;;;;;;5043614;28;20455;-79
2023/10/22 09:37:50;;;;;;;0.30;0.20;;;22.30;99.90;;;;;;5044183;28;20184;-77
2023/10/22 09:40:20;;;;;;;0.30;0.30;;;22.40;99.90;;;;;;5044696;28;20997;-79
2023/10/22 09:42:48;;;;;;;0.30;0.20;;;22.50;99.90;;;;;;5044196;28;20470;-76
2023/10/22 09:45:15;;;;;;;0.30;0.20;;;22.50;99.90;;;;;;5043505;28;20451;-76
2023/10/22 09:47:41;;;;;;;13.63;1.90;;;22.60;99.90;;;;;;5043337;28;20428;-79
2023/10/22 09:50:12;;;;;;;0.30;0.20;;;22.70;99.90;;;;;;5043479;28;20436;-79
2023/10/22 09:52:42;;;;;;;0.30;0.20;;;22.70;99.90;;;;;;5043637;28;20959;-79
2023/10/22 09:55:13;;;;;;;0.30;0.20;;;22.80;99.90;;;;;;5042104;28;20453;-76
2023/10/22 09:57:40;;;;;;;0.30;0.20;;;22.90;99.90;;;;;;5047282;28;20412;-79
2023/10/22 10:00:12;;;;;;;0.30;0.20;;;23.00;99.90;;;;;;5047529;28;20465;-76
2023/10/22 10:02:40;;;;;;;0.30;0.20;;;23.00;99.90;;;;;;5049171;28;20985;-76
2023/10/22 10:05:10;;;;;;;0.30;0.20;;;23.00;99.90;;;;;;5047539;28;20634;-76
2023/10/22 10:07:38;;;;;;;0.30;0.20;;;23.00;99.90;;;;;;5049336;28;20770;-76
2023/10/22 10:10:05;;;;;;;0.30;0.20;;;23.10;99.90;;;;;;5047413;28;20518;-79
2023/10/22 10:12:32;;;;;;;1.37;1.37;;;23.20;99.90;;;;;;5047838;28;20726;-76
2023/10/22 10:14:57;;;;;;;0.30;0.20;;;23.30;99.90;;;;;;5047119;28;20452;-80
2023/10/22 10:17:23;;;;;;;0.30;0.20;;;23.40;99.90;;;;;;5048693;28;20418;-77
2023/10/22 10:19:49;;;;;;;1.00;0.97;;;23.40;99.90;;;;;;5047303;28;20205;-79
2023/10/22 10:22:40;;;;;;;0.30;0.20;;;23.40;99.90;;;;;;5048342;28;20697;-79
2023/10/22 10:25:32;;;;;;;0.30;0.20;;;23.40;99.90;;;;;;5047380;28;20204;-79
2023/10/22 10:28:06;;;;;;;0.30;0.20;;;23.40;99.90;;;;;;5047367;28;20479;-79
2023/10/22 10:30:32;;;;;;;0.30;0.20;;;23.50;99.90;;;;;;5081044;28;20452;-79
2023/10/22 10:32:58;;;;;;;0.30;0.30;;;23.50;99.90;;;;;;5047375;28;20489;-79
2023/10/22 10:35:26;;;;;;;0.30;0.20;;;23.50;99.90;;;;;;5047133;28;20450;-77
2023/10/22 10:38:14;;;;;;;0.30;0.20;;;23.60;99.90;;;;;;5047346;28;20177;-76
2023/10/22 10:40:45;;;;;;;0.30;0.20;;;23.70;99.90;;;;;;5048099;28;20442;-76
2023/10/22 10:43:10;;;;;;;0.30;0.30;;;23.80;99.90;;;;;;5048336;28;20763;-79
2023/10/22 10:45:43;;;;;;;0.30;0.20;;;23.80;99.90;;;;;;5048310;28;21013;-79
2023/10/22 10:48:50;;;;;;;0.30;0.20;;;23.80;99.90;;;;;;5080118;28;20205;-79
2023/10/22 10:51:20;;;;;;;0.30;0.20;;;23.80;99.90;;;;;;5046797;28;20449;-76
2023/10/22 10:54:02;;;;;;;0.30;0.20;;;23.80;99.90;;;;;;5048042;28;20426;-77
2023/10/22 10:56:49;;;;;;;0.30;0.20;;;23.80;99.90;;;;;;5047124;28;20566;-79
2023/10/22 10:59:34;;;;;;;0.30;0.20;;;23.80;99.90;;;;;;5045442;28;20492;-79
2023/10/22 11:02:09;;;;;;;0.30;0.20;;;23.80;99.90;;;;;;5045489;28;20470;-79
2023/10/22 11:04:37;;;;;;;0.30;0.20;;;23.90;99.90;;;;;;5045271;28;20442;-79
2023/10/22 11:07:03;;;;;;;0.30;0.20;;;24.00;99.90;;;;;;5046963;28;20440;-76
2023/10/22 11:09:31;;;;;;;0.30;0.20;;;24.10;99.90;;;;;;5044776;28;21007;-76
2023/10/22 11:12:04;;;;;;;0.30;0.20;;;24.10;99.90;;;;;;5046155;28;20477;-79
2023/10/22 11:14:37;;;;;;;0.30;0.20;;;24.10;99.90;;;;;;5044985;28;21015;-79
2023/10/22 11:17:03;;;;;;;0.30;0.20;;;24.00;99.90;;;;;;5044906;28;20818;-79
2023/10/22 11:19:32;;;;;;;0.30;0.20;;;24.00;99.90;;;;;;5044574;28;20466;-79
2023/10/22 11:21:58;;;;;;;0.30;0.20;;;24.10;99.90;;;;;;5044433;28;20744;-76
2023/10/22 11:24:34;;;;;;;0.53;0.50;;;24.20;99.90;;;;;;5045639;28;20430;-79
2023/10/22 11:27:04;;;;;;;0.30;0.20;;;24.20;99.90;;;;;;5045797;28;20444;-76
2023/10/22 11:29:38;;;;;;;0.30;0.20;;;24.20;99.90;;;;;;5046101;28;20430;-77
2023/10/22 11:32:04;;;;;;;0.30;0.20;;;24.20;99.90;;;;;;5045894;28;21242;-79
2023/10/22 11:34:29;;;;;;;0.30;0.20;;;24.30;99.90;;;;;;5045742;28;20514;-76
2023/10/22 11:36:59;;;;;;;0.30;0.20;;;24.30;99.90;;;;;;5046815;28;20574;-76
2023/10/22 11:39:35;;;;;;;0.30;0.20;;;24.30;99.90;;;;;;5046889;28;20225;-76
2023/10/22 11:42:07;;;;;;;0.30;0.20;;;24.20;99.90;;;;;;5079520;28;20815;-79
2023/10/22 11:44:34;;;;;;;0.30;0.20;;;24.20;99.90;;;;;;5045850;28;20499;-76
2023/10/22 11:47:02;;;;;;;0.83;0.83;;;24.10;99.90;;;;;;5045725;28;20453;-80
2023/10/22 11:49:28;;;;;;;0.30;0.20;;;24.10;99.90;;;;;;5046878;28;20526;-79
2023/10/22 11:51:54;;;;;;;0.30;0.20;;;24.10;99.90;;;;;;5045747;28;20785;-76
2023/10/22 11:54:37;;;;;;;0.30;0.20;;;24.10;99.90;;;;;;5047057;28;20446;-76
2023/10/22 11:57:03;;;;;;;0.30;0.20;;;24.10;99.90;;;;;;5046999;28;20177;-76
2023/10/22 11:59:29;;;;;;;0.30;0.20;;;24.10;99.90;;;;;;5046840;28;20461;-77
2023/10/22 12:01:55;;;;;;;0.40;0.40;;;24.10;99.90;;;;;;5046536;28;20462;-79
2023/10/22 12:04:21;;;;;;;0.30;0.20;;;24.20;99.90;;;;;;5042012;28;20846;-79
2023/10/22 12:06:46;;;;;;;0.30;0.20;;;24.30;99.90;;;;;;5035186;28;20458;-80
2023/10/22 12:09:12;;;;;;;0.30;0.20;;;24.30;99.90;;;;;;5044095;28;20204;-77
2023/10/22 12:11:37;;;;;;;0.30;0.20;;;24.40;99.90;;;;;;5045832;28;20341;-78
2023/10/22 12:14:03;;;;;;;0.30;0.20;;;24.40;99.90;;;;;;5045423;28;20222;-78
2023/10/22 12:16:29;;;;;;;0.30;0.20;;;24.40;99.90;;;;;;5045914;28;20205;-81
2023/10/22 12:18:54;;;;;;;0.30;0.30;;;24.50;99.90;;;;;;5043051;28;20190;-82
2023/10/22 12:21:20;;;;;;;0.30;0.20;;;24.40;99.90;;;;;;5046230;28;20307;-81
2023/10/22 12:23:46;;;;;;;0.30;0.20;;;24.40;99.90;;;;;;5038613;28;20185;-81
2023/10/22 12:26:11;;;;;;;0.30;0.20;;;24.30;99.90;;;;;;5045032;28;20200;-81
2023/10/22 12:28:37;;;;;;;0.30;0.20;;;24.30;99.90;;;;;;5076625;28;20182;-81
2023/10/22 12:31:06;;;;;;;0.30;0.20;;;24.30;99.90;;;;;;5043379;28;20204;-81
2023/10/22 12:33:32;;;;;;;0.30;0.20;;;24.30;99.90;;;;;;5043512;28;20662;-81
2023/10/22 12:35:57;;;;;;;0.30;0.20;;;24.30;99.90;;;;;;5044029;28;20474;-78
2023/10/22 12:38:23;;;;;;;0.30;0.20;;;24.30;99.90;;;;;;5044336;28;20612;-78
2023/10/22 12:40:49;;;;;;;0.30;0.20;;;24.30;99.90;;;;;;5043420;28;20202;-78
2023/10/22 12:43:14;;;;;;;0.30;0.20;;;24.30;99.90;;;;;;5046216;28;20258;-81
2023/10/22 12:45:40;;;;;;;0.30;0.20;;;24.40;99.90;;;;;;5044562;28;20202;-80